createdAt,value
2018-01-31T01:52:21.781Z,43.11
2018-01-31T01:52:52.092Z,43.20
2018-01-31T01:54:45.134Z,43.68
2018-01-31T01:55:45.209Z,43.88
2018-01-31T01:57:38.237Z,43.59
2018-01-31T01:58:38.328Z,43.40
2018-01-31T02:00:32.364Z,43.40
2018-01-31T02:01:32.440Z,43.49
2018-01-31T02:03:25.466Z,43.11
2018-01-31T02:04:25.551Z,43.49
2018-01-31T02:06:19.604Z,43.78
2018-01-31T02:07:19.664Z,43.40
2018-01-31T02:09:12.693Z,43.59
2018-01-31T02:10:12.782Z,43.59
2018-01-31T02:12:05.808Z,43.68
2018-01-31T02:13:05.894Z,43.59
2018-01-31T02:14:58.928Z,43.68
2018-01-31T02:15:59.003Z,43.59
2018-01-31T02:17:52.033Z,43.59
2018-01-31T02:18:52.115Z,43.59
2018-01-31T02:20:45.146Z,43.59
2018-01-31T02:21:45.223Z,43.40
2018-01-31T02:23:38.255Z,43.59
2018-01-31T02:24:38.337Z,43.59
2018-01-31T02:26:32.410Z,43.40
2018-01-31T02:27:32.452Z,43.59
2018-01-31T02:29:25.508Z,43.59
2018-01-31T02:30:25.596Z,43.49
2018-01-31T02:32:18.598Z,43.40
2018-01-31T02:33:18.681Z,43.40
2018-01-31T02:35:12.720Z,43.49
2018-01-31T02:36:12.804Z,43.40
2018-01-31T02:38:05.836Z,43.59
2018-01-31T02:39:05.908Z,43.88
2018-01-31T02:40:58.946Z,43.40
2018-01-31T02:41:59.030Z,43.49
2018-01-31T02:43:52.057Z,43.68
2018-01-31T02:44:52.146Z,43.59
2018-01-31T02:46:45.172Z,43.68
2018-01-31T02:47:45.260Z,43.59
2018-01-31T02:49:38.289Z,43.59
2018-01-31T02:50:38.370Z,43.49
2018-01-31T02:52:32.410Z,43.59
2018-01-31T02:53:32.485Z,43.68
2018-01-31T02:55:25.525Z,43.59
2018-01-31T02:56:25.601Z,43.59
2018-01-31T02:58:18.659Z,43.40
2018-01-31T02:59:18.715Z,43.59
2018-01-31T03:01:11.754Z,43.49
2018-01-31T03:02:11.824Z,43.30
2018-01-31T03:04:04.860Z,43.97
2018-01-31T03:05:04.943Z,43.59
2018-01-31T03:06:57.975Z,43.40
2018-01-31T03:07:58.050Z,43.49
2018-01-31T03:09:52.098Z,43.49
2018-01-31T03:10:52.182Z,43.59
2018-01-31T03:12:45.206Z,43.88
2018-01-31T03:13:45.284Z,43.68
2018-01-31T03:15:38.319Z,43.59
2018-01-31T03:16:38.399Z,43.59
2018-01-31T03:18:31.427Z,43.49
2018-01-31T03:19:31.517Z,43.59
2018-01-31T03:21:24.553Z,43.49
2018-01-31T03:22:24.619Z,43.59
2018-01-31T03:24:17.652Z,43.78
2018-01-31T03:25:17.733Z,43.40
2018-01-31T03:27:10.762Z,43.49
2018-01-31T03:28:10.844Z,43.59
2018-01-31T03:30:03.871Z,43.68
2018-01-31T03:31:03.955Z,43.59
2018-01-31T03:32:56.983Z,43.59
2018-01-31T03:33:57.067Z,43.49
2018-01-31T03:35:50.095Z,43.40
2018-01-31T03:36:50.179Z,43.59
2018-01-31T03:38:43.209Z,43.88
2018-01-31T03:39:43.284Z,43.40
2018-01-31T03:41:37.319Z,43.49
2018-01-31T03:42:37.404Z,43.59
2018-01-31T03:44:30.432Z,43.59
2018-01-31T03:45:30.521Z,43.59
2018-01-31T03:47:23.548Z,43.59
2018-01-31T03:48:23.628Z,43.40
2018-01-31T03:50:16.676Z,43.49
2018-01-31T03:51:16.741Z,43.40
2018-01-31T03:53:09.769Z,43.49
2018-01-31T03:54:09.849Z,43.59
2018-01-31T03:56:02.888Z,43.59
2018-01-31T03:57:02.969Z,43.68
2018-01-31T03:58:56.008Z,43.40
2018-01-31T03:59:56.079Z,43.59
2018-01-31T04:01:49.119Z,43.49
2018-01-31T04:02:49.200Z,43.59
2018-01-31T04:04:43.251Z,43.59
2018-01-31T04:05:43.323Z,43.59
2018-01-31T04:07:36.373Z,43.59
2018-01-31T04:08:36.437Z,43.49
2018-01-31T04:10:30.474Z,43.11
2018-01-31T04:11:30.556Z,43.88
2018-01-31T04:13:24.599Z,43.97
2018-01-31T04:14:24.709Z,43.11
2018-01-31T04:16:17.692Z,43.40
2018-01-31T04:17:17.784Z,43.11
2018-01-31T04:19:10.810Z,43.88
2018-01-31T04:20:10.891Z,43.30
2018-01-31T04:22:04.922Z,43.88
2018-01-31T04:23:05.007Z,43.88
2018-01-31T04:24:58.042Z,43.49
2018-01-31T04:25:58.119Z,43.11
2018-01-31T04:27:52.166Z,43.20
2018-01-31T04:28:52.246Z,43.11
2018-01-31T04:30:45.282Z,43.11
2018-01-31T04:31:45.356Z,43.11
2018-01-31T04:33:38.388Z,43.88
2018-01-31T04:34:38.472Z,43.88
2018-01-31T04:36:31.507Z,43.11
2018-01-31T04:37:31.581Z,43.40
2018-01-31T04:39:24.611Z,43.30
2018-01-31T04:40:24.693Z,43.59
2018-01-31T04:42:18.752Z,43.59
2018-01-31T04:43:18.869Z,43.59
2018-01-31T04:45:11.856Z,44.07
2018-01-31T04:46:11.935Z,43.88
2018-01-31T04:48:04.966Z,43.40
2018-01-31T04:49:05.046Z,43.20
2018-01-31T04:50:59.084Z,43.40
2018-01-31T04:51:59.217Z,43.68
2018-01-31T04:53:52.200Z,43.11
2018-01-31T04:54:52.281Z,43.11
2018-01-31T04:56:45.322Z,43.11
2018-01-31T04:57:45.402Z,43.78
2018-01-31T04:59:39.433Z,43.40
2018-01-31T05:00:39.512Z,43.68
2018-01-31T05:02:32.545Z,43.59
2018-01-31T05:03:32.629Z,43.59
2018-01-31T05:05:25.684Z,43.30
2018-01-31T05:06:25.746Z,43.11
2018-01-31T05:08:18.779Z,43.49
2018-01-31T05:09:18.848Z,43.88
2018-01-31T05:11:11.890Z,43.68
2018-01-31T05:12:11.973Z,43.40
2018-01-31T05:25:16.138Z,43.78
2018-01-31T05:26:16.224Z,43.59
2018-01-31T05:28:09.269Z,43.78
2018-01-31T05:29:09.346Z,43.40
2018-01-31T05:31:03.382Z,43.49
2018-01-31T05:32:03.461Z,43.49
2018-01-31T05:33:56.508Z,43.88
2018-01-31T05:34:56.572Z,43.59
2018-01-31T05:36:50.608Z,43.40
2018-01-31T05:37:50.689Z,43.97
2018-01-31T05:39:43.721Z,43.68
2018-01-31T05:40:43.807Z,44.07
2018-01-31T05:42:37.846Z,43.88
2018-01-31T05:43:37.925Z,43.68
2018-01-31T05:45:31.962Z,43.59
2018-01-31T05:46:32.042Z,43.59
2018-01-31T05:48:25.077Z,43.59
2018-01-31T05:49:25.161Z,43.68
2018-01-31T05:51:18.197Z,43.59
2018-01-31T05:52:18.277Z,43.68
2018-01-31T05:54:11.308Z,43.59
2018-01-31T05:55:11.390Z,43.59
2018-01-31T05:57:04.444Z,43.59
2018-01-31T05:58:04.502Z,43.59
2018-01-31T05:59:57.530Z,43.49
2018-01-31T06:00:57.613Z,43.68
2018-01-31T06:02:50.648Z,43.59
2018-01-31T06:03:50.727Z,43.68
2018-01-31T06:05:43.762Z,43.68
2018-01-31T06:06:43.842Z,43.78
2018-01-31T06:08:36.876Z,43.40
2018-01-31T06:09:36.957Z,43.78
2018-01-31T06:11:29.985Z,43.78
2018-01-31T06:12:30.067Z,43.40
2018-01-31T06:14:23.100Z,43.68
2018-01-31T06:15:23.180Z,43.68
2018-01-31T06:17:16.216Z,43.59
2018-01-31T06:18:16.298Z,43.11
2018-01-31T06:20:09.335Z,43.40
2018-01-31T06:21:09.414Z,43.78
2018-01-31T06:23:02.450Z,43.11
2018-01-31T06:24:02.532Z,43.40
2018-01-31T06:25:55.595Z,43.11
2018-01-31T06:26:55.645Z,43.97
2018-01-31T06:28:48.679Z,43.59
2018-01-31T06:29:48.755Z,43.59
2018-01-31T06:31:41.786Z,43.40
2018-01-31T06:32:41.866Z,43.49
2018-01-31T06:34:34.897Z,43.78
2018-01-31T06:35:34.976Z,43.40
2018-01-31T06:37:28.009Z,43.49
2018-01-31T06:38:28.090Z,43.59
2018-01-31T06:40:21.138Z,43.40
2018-01-31T06:41:21.220Z,43.49
2018-01-31T06:43:14.253Z,43.30
2018-01-31T06:44:14.331Z,43.97
2018-01-31T06:46:08.374Z,43.11
2018-01-31T06:47:08.456Z,44.07
2018-01-31T06:49:01.808Z,43.40
2018-01-31T06:50:01.576Z,43.20
2018-01-31T06:51:54.604Z,43.78
2018-01-31T06:52:54.685Z,43.40
2018-01-31T06:54:47.722Z,43.88
2018-01-31T06:55:47.798Z,43.20
2018-01-31T06:57:40.830Z,43.11
2018-01-31T06:58:40.909Z,43.11
2018-01-31T07:00:33.943Z,43.30
2018-01-31T07:01:34.023Z,43.20
2018-01-31T07:03:27.053Z,43.68
2018-01-31T07:04:27.134Z,43.88
2018-01-31T07:06:20.166Z,43.30
2018-01-31T07:07:20.247Z,43.20
2018-01-31T07:09:14.286Z,43.20
2018-01-31T07:10:14.366Z,43.88
2018-01-31T07:12:07.417Z,43.97
2018-01-31T07:13:07.489Z,43.59
2018-01-31T07:15:00.516Z,43.88
2018-01-31T07:16:00.608Z,43.30
2018-01-31T07:17:53.635Z,43.20
2018-01-31T07:18:53.711Z,43.97
2018-01-31T07:20:46.739Z,43.30
2018-01-31T07:21:46.820Z,43.97
2018-01-31T07:23:39.854Z,43.11
2018-01-31T07:24:39.934Z,43.40
2018-01-31T07:26:32.963Z,43.78
2018-01-31T07:27:33.061Z,43.88
2018-01-31T07:29:26.082Z,44.07
2018-01-31T07:30:26.160Z,43.30
2018-01-31T07:32:19.214Z,43.20
2018-01-31T07:33:19.266Z,43.68
2018-01-31T07:35:13.311Z,43.68
2018-01-31T07:36:13.381Z,43.88
2018-01-31T07:38:06.423Z,43.11
2018-01-31T07:39:06.493Z,43.59
2018-01-31T07:40:59.533Z,43.20
2018-01-31T07:41:59.611Z,43.20
2018-01-31T07:43:52.646Z,43.88
2018-01-31T07:44:52.737Z,43.88
2018-01-31T07:46:45.767Z,43.40
2018-01-31T07:47:45.841Z,43.59
2018-01-31T07:49:38.876Z,43.11
2018-01-31T07:50:38.949Z,43.59
2018-01-31T07:52:31.988Z,43.11
2018-01-31T07:53:32.069Z,43.68
2018-01-31T07:55:25.096Z,43.40
2018-01-31T07:56:25.179Z,43.78
2018-01-31T07:58:18.234Z,44.55
2018-01-31T07:59:18.308Z,44.35
2018-01-31T08:00:18.397Z,44.84
2018-01-31T08:01:18.474Z,44.86
2018-01-31T08:02:18.566Z,45.63
2018-01-31T08:03:18.644Z,45.05
2018-01-31T08:04:18.741Z,45.15
2018-01-31T08:05:18.819Z,45.44
2018-01-31T08:06:18.905Z,45.25
2018-01-31T08:07:18.991Z,45.53
2018-01-31T08:08:19.073Z,45.15
2018-01-31T08:09:19.156Z,45.05
2018-01-31T08:10:19.247Z,45.25
2018-01-31T08:11:19.326Z,45.25
2018-01-31T08:12:19.412Z,44.96
2018-01-31T08:13:19.496Z,44.89
2018-01-31T08:14:19.584Z,45.27
2018-01-31T08:15:19.667Z,46.14
2018-01-31T08:16:19.756Z,45.56
2018-01-31T08:17:19.838Z,45.27
2018-01-31T08:18:19.920Z,45.84
2018-01-31T08:19:20.010Z,45.46
2018-01-31T08:20:20.092Z,45.56
2018-01-31T08:21:20.181Z,45.94
2018-01-31T08:22:20.264Z,46.71
2018-01-31T08:23:20.348Z,46.04
2018-01-31T08:24:20.429Z,45.46
2018-01-31T08:25:20.513Z,45.77
2018-01-31T08:26:20.603Z,45.46
2018-01-31T08:27:20.688Z,45.48
2018-01-31T08:28:20.779Z,46.23
2018-01-31T08:29:20.864Z,45.97
2018-01-31T08:30:20.961Z,45.48
2018-01-31T08:31:21.033Z,45.39
2018-01-31T08:32:21.115Z,45.68
2018-01-31T08:33:21.207Z,45.31
2018-01-31T08:34:21.285Z,44.18
2018-01-31T08:35:21.379Z,44.27
2018-01-31T08:36:21.463Z,43.41
2018-01-31T08:37:21.552Z,43.60
2018-01-31T08:38:21.641Z,44.27
2018-01-31T08:39:21.730Z,43.87
2018-01-31T08:40:21.805Z,44.45
2018-01-31T08:41:21.903Z,44.64
2018-01-31T08:42:21.985Z,44.25
2018-01-31T08:43:22.093Z,44.54
2018-01-31T08:44:22.168Z,45.03
2018-01-31T08:45:22.246Z,44.90
2018-01-31T08:46:22.336Z,45.20
2018-01-31T08:47:22.410Z,44.90
2018-01-31T08:48:22.497Z,45.58
2018-01-31T08:49:22.590Z,45.29
2018-01-31T08:50:22.692Z,44.71
2018-01-31T08:51:22.763Z,45.00
2018-01-31T08:52:22.849Z,45.29
2018-01-31T08:53:22.929Z,45.58
2018-01-31T08:54:23.009Z,44.90
2018-01-31T08:55:27.535Z,44.81
2018-01-31T08:56:27.599Z,44.81
2018-01-31T08:58:20.628Z,44.93
2018-01-31T08:59:44.236Z,45.03
2018-01-31T09:00:44.317Z,44.54
2018-01-31T09:02:37.333Z,45.48
2018-01-31T09:03:37.385Z,45.41
2018-01-31T09:06:00.695Z,45.51
2018-01-31T09:07:00.763Z,45.51
2018-01-31T09:08:53.826Z,44.83
2018-01-31T09:09:53.896Z,45.31
2018-01-31T09:11:46.924Z,44.54
2018-01-31T09:12:47.009Z,43.58
2018-01-31T09:14:40.171Z,44.73
2018-01-31T09:15:40.128Z,45.60
2018-01-31T09:17:33.170Z,44.54
2018-01-31T09:18:33.254Z,44.54
2018-01-31T09:20:26.322Z,45.60
2018-01-31T09:21:26.378Z,45.31
2018-01-31T09:23:19.410Z,45.51
2018-01-31T09:24:19.495Z,45.31
2018-01-31T09:26:12.794Z,45.60
2018-01-31T09:27:12.608Z,45.51
2018-01-31T09:29:05.652Z,45.60
2018-01-31T09:30:05.738Z,45.21
2018-01-31T09:31:58.776Z,44.83
2018-01-31T09:32:58.845Z,44.35
2018-01-31T09:34:51.896Z,44.95
2018-01-31T09:35:51.976Z,44.85
2018-01-31T09:37:45.137Z,43.91
2018-01-31T09:38:45.098Z,44.03
2018-01-31T09:40:38.140Z,43.57
2018-01-31T09:41:38.225Z,43.01
2018-01-31T09:43:31.280Z,42.62
2018-01-31T09:44:31.348Z,41.94
2018-01-31T09:46:24.393Z,42.72
2018-01-31T09:47:24.475Z,42.55
2018-01-31T09:49:18.851Z,41.97
2018-01-31T09:50:18.611Z,41.77
2018-01-31T09:52:11.653Z,41.87
2018-01-31T09:53:11.739Z,41.87
2018-01-31T09:55:04.838Z,42.72
2018-01-31T09:56:04.885Z,43.28
2018-01-31T09:57:57.912Z,44.22
2018-01-31T09:58:57.989Z,44.12
2018-01-31T10:00:51.057Z,44.68
2018-01-31T10:01:51.121Z,45.55
2018-01-31T10:03:44.165Z,45.36
2018-01-31T10:04:44.246Z,44.87
2018-01-31T10:06:37.303Z,45.72
2018-01-31T10:07:37.376Z,45.53
2018-01-31T10:09:30.421Z,45.24
2018-01-31T10:10:30.546Z,45.07
2018-01-31T10:12:23.733Z,45.55
2018-01-31T10:13:23.627Z,45.53
2018-01-31T10:15:16.676Z,45.72
2018-01-31T10:16:16.754Z,45.72
2018-01-31T10:18:09.813Z,45.72
2018-01-31T10:19:09.879Z,45.53
2018-01-31T10:21:02.921Z,45.82
2018-01-31T10:22:03.001Z,45.43
2018-01-31T10:23:58.059Z,45.72
2018-01-31T10:24:58.131Z,45.62
2018-01-31T10:25:58.208Z,45.82
2018-01-31T10:26:58.294Z,45.62
2018-01-31T10:27:58.386Z,45.26
2018-01-31T10:28:58.471Z,45.24
2018-01-31T10:29:58.556Z,45.75
2018-01-31T10:30:58.644Z,45.55
2018-01-31T10:31:58.729Z,45.53
2018-01-31T10:32:58.820Z,45.65
2018-01-31T10:33:58.901Z,46.23
2018-01-31T10:34:58.992Z,46.42
2018-01-31T10:35:59.084Z,46.51
2018-01-31T10:36:59.165Z,46.13
2018-01-31T10:37:59.253Z,46.42
2018-01-31T10:38:59.341Z,46.71
2018-01-31T10:39:59.430Z,46.51
2018-01-31T10:40:59.521Z,46.90
2018-01-31T10:41:59.613Z,46.71
2018-01-31T10:42:59.695Z,46.90
2018-01-31T10:43:59.773Z,47.07
2018-01-31T10:44:59.871Z,47.09
2018-01-31T10:45:59.964Z,47.09
2018-01-31T10:47:00.038Z,47.00
2018-01-31T10:48:00.126Z,47.29
2018-01-31T10:49:00.215Z,47.19
2018-01-31T10:50:00.299Z,47.48
2018-01-31T10:51:00.431Z,47.38
2018-01-31T10:52:00.478Z,47.77
2018-01-31T10:53:00.568Z,47.48
2018-01-31T10:57:28.820Z,47.22
2018-01-31T10:58:00.995Z,47.19
2018-01-31T10:59:01.083Z,47.58
2018-01-31T11:00:01.174Z,47.77
2018-01-31T11:01:01.259Z,47.48
2018-01-31T11:02:01.348Z,47.67
2018-01-31T11:03:01.491Z,47.58
2018-01-31T11:04:01.529Z,47.48
2018-01-31T11:05:01.609Z,47.58
2018-01-31T11:06:01.693Z,47.48
2018-01-31T11:07:01.791Z,47.87
2018-01-31T11:08:01.879Z,47.58
2018-01-31T11:09:01.963Z,47.48
2018-01-31T11:10:02.046Z,47.19
2018-01-31T11:11:02.133Z,47.19
2018-01-31T11:12:02.221Z,46.81
2018-01-31T11:13:02.305Z,47.48
2018-01-31T11:14:02.405Z,47.09
2018-01-31T11:15:02.483Z,46.71
2018-01-31T11:16:02.571Z,46.81
2018-01-31T11:17:02.654Z,47.09
2018-01-31T11:18:02.743Z,46.71
2018-01-31T11:19:02.833Z,46.81
2018-01-31T11:20:02.915Z,46.61
2018-01-31T11:21:03.007Z,46.71
2018-01-31T11:22:03.094Z,46.33
2018-01-31T11:23:03.179Z,46.33
2018-01-31T11:24:03.271Z,45.84
2018-01-31T11:25:03.353Z,45.65
2018-01-31T11:26:03.445Z,45.55
2018-01-31T11:27:03.531Z,45.45
2018-01-31T11:28:03.618Z,45.36
2018-01-31T11:29:03.702Z,45.45
2018-01-31T11:30:03.810Z,45.36
2018-01-31T11:31:03.913Z,45.36
2018-01-31T11:32:03.986Z,45.55
2018-01-31T11:33:04.054Z,45.26
2018-01-31T11:34:04.138Z,45.26
2018-01-31T11:35:04.235Z,45.26
2018-01-31T11:36:04.315Z,45.36
2018-01-31T11:37:04.401Z,45.45
2018-01-31T11:38:04.487Z,45.36
2018-01-31T11:39:04.577Z,44.97
2018-01-31T11:40:04.666Z,44.87
2018-01-31T11:41:04.754Z,44.59
2018-01-31T11:42:04.834Z,44.59
2018-01-31T11:43:04.920Z,44.59
2018-01-31T11:44:05.009Z,44.59
2018-01-31T11:45:05.098Z,44.49
2018-01-31T11:46:05.189Z,44.29
2018-01-31T11:47:05.272Z,44.10
2018-01-31T11:48:05.361Z,44.10
2018-01-31T11:49:05.454Z,43.81
2018-01-31T11:50:05.533Z,43.91
2018-01-31T11:51:05.622Z,43.91
2018-01-31T11:52:05.715Z,44.10
2018-01-31T11:53:05.807Z,43.72
2018-01-31T11:54:05.888Z,43.43
2018-01-31T11:55:05.969Z,43.81
2018-01-31T11:56:06.054Z,43.72
2018-01-31T11:57:06.149Z,43.72
2018-01-31T11:58:06.230Z,43.52
2018-01-31T11:59:06.330Z,43.81
2018-01-31T12:00:06.414Z,43.62
2018-01-31T12:01:06.500Z,43.52
2018-01-31T12:02:06.585Z,43.62
2018-01-31T12:03:06.677Z,43.81
2018-01-31T12:04:06.760Z,43.33
2018-01-31T12:05:06.846Z,43.33
2018-01-31T12:06:06.935Z,42.85
2018-01-31T12:07:07.024Z,42.85
2018-01-31T12:08:07.109Z,43.14
2018-01-31T12:09:07.197Z,43.24
2018-01-31T12:10:07.286Z,43.04
2018-01-31T12:11:07.368Z,43.14
2018-01-31T12:12:07.461Z,43.14
2018-01-31T12:13:07.546Z,42.94
2018-01-31T12:14:07.631Z,43.14
2018-01-31T12:15:07.727Z,43.43
2018-01-31T12:16:07.809Z,43.14
2018-01-31T12:17:07.903Z,43.33
2018-01-31T12:18:07.982Z,43.43
2018-01-31T12:19:08.071Z,43.43
2018-01-31T12:20:08.159Z,43.04
2018-01-31T12:21:08.252Z,42.56
2018-01-31T12:22:08.337Z,43.24
2018-01-31T12:23:08.425Z,42.85
2018-01-31T12:24:08.513Z,43.14
2018-01-31T12:25:08.598Z,43.04
2018-01-31T12:26:08.690Z,43.52
2018-01-31T12:27:08.772Z,43.72
2018-01-31T12:28:08.865Z,43.62
2018-01-31T12:29:08.944Z,43.62
2018-01-31T12:30:09.037Z,43.43
2018-01-31T12:31:09.151Z,43.33
2018-01-31T12:32:09.208Z,43.24
2018-01-31T12:33:09.300Z,42.85
2018-01-31T12:34:09.385Z,43.14
2018-01-31T12:35:09.478Z,43.33
2018-01-31T12:36:09.557Z,43.14
2018-01-31T12:37:09.640Z,43.72
2018-01-31T12:38:09.737Z,43.04
2018-01-31T12:39:09.825Z,43.14
2018-01-31T12:40:09.908Z,43.62
2018-01-31T12:41:09.997Z,44.10
2018-01-31T12:42:10.087Z,43.74
2018-01-31T12:43:10.177Z,43.08
2018-01-31T12:44:10.261Z,43.20
2018-01-31T12:45:10.345Z,42.72
2018-01-31T12:46:10.440Z,42.16
2018-01-31T12:47:10.532Z,41.97
2018-01-31T12:48:10.611Z,41.70
2018-01-31T12:49:10.702Z,41.60
2018-01-31T12:50:10.800Z,41.31
2018-01-31T12:51:10.883Z,41.24
2018-01-31T12:52:10.973Z,41.04
2018-01-31T12:53:11.065Z,40.75
2018-01-31T12:54:11.158Z,40.77
2018-01-31T12:55:11.238Z,40.75
2018-01-31T12:56:11.337Z,40.75
2018-01-31T12:57:11.421Z,40.36
2018-01-31T12:58:11.512Z,40.67
2018-01-31T12:59:11.608Z,40.67
2018-01-31T13:00:11.697Z,40.48
2018-01-31T13:01:11.781Z,40.09
2018-01-31T13:02:11.876Z,40.48
2018-01-31T13:03:11.963Z,40.48
2018-01-31T13:04:12.057Z,40.28
2018-01-31T13:05:12.142Z,40.48
2018-01-31T13:06:12.227Z,40.38
2018-01-31T13:07:12.329Z,40.58
2018-01-31T13:08:12.408Z,40.75
2018-01-31T13:09:12.531Z,41.14
2018-01-31T13:10:12.588Z,41.50
2018-01-31T13:11:12.685Z,41.89
2018-01-31T13:12:12.765Z,41.97
2018-01-31T13:13:12.860Z,42.65
2018-01-31T13:14:12.957Z,42.83
2018-01-31T13:15:13.041Z,42.83
2018-01-31T13:16:13.127Z,43.59
2018-01-31T13:17:13.219Z,43.59
2018-01-31T13:18:13.309Z,43.78
2018-01-31T13:19:13.395Z,43.98
2018-01-31T13:20:13.490Z,43.76
2018-01-31T13:21:13.567Z,44.34
2018-01-31T13:22:13.664Z,44.73
2018-01-31T13:23:13.747Z,44.92
2018-01-31T13:24:13.838Z,45.01
2018-01-31T13:25:13.922Z,44.92
2018-01-31T13:26:14.012Z,45.69
2018-01-31T13:27:14.110Z,45.50
2018-01-31T13:28:14.189Z,45.40
2018-01-31T13:29:14.282Z,45.50
2018-01-31T13:30:14.367Z,45.79
2018-01-31T13:31:14.452Z,45.89
2018-01-31T13:32:14.546Z,46.17
2018-01-31T13:33:14.635Z,45.89
2018-01-31T13:34:14.716Z,45.89
2018-01-31T13:35:14.807Z,45.89
2018-01-31T13:36:14.898Z,46.17
2018-01-31T13:37:14.982Z,46.56
2018-01-31T13:38:15.071Z,46.47
2018-01-31T13:39:15.165Z,46.27
2018-01-31T13:40:15.246Z,46.37
2018-01-31T13:41:15.343Z,46.85
2018-01-31T13:42:15.422Z,46.95
2018-01-31T13:43:15.516Z,46.56
2018-01-31T13:44:15.613Z,46.85
2018-01-31T13:45:15.699Z,46.95
2018-01-31T13:46:15.777Z,46.95
2018-01-31T13:47:15.869Z,47.14
2018-01-31T13:48:15.957Z,47.14
2018-01-31T13:49:16.044Z,47.33
2018-01-31T13:50:16.136Z,47.24
2018-01-31T13:51:16.218Z,47.24
2018-01-31T13:52:16.321Z,47.53
2018-01-31T13:53:16.400Z,47.72
2018-01-31T13:54:16.481Z,47.63
2018-01-31T13:55:16.573Z,47.07
2018-01-31T13:56:16.660Z,46.68
2018-01-31T13:57:16.754Z,46.70
2018-01-31T13:58:16.835Z,46.49
2018-01-31T13:59:16.923Z,46.68
2018-01-31T14:00:17.017Z,46.68
2018-01-31T14:01:17.105Z,45.81
2018-01-31T14:02:17.191Z,44.46
2018-01-31T14:03:17.282Z,44.34
2018-01-31T14:04:17.366Z,45.04
2018-01-31T14:05:17.462Z,45.72
2018-01-31T14:06:17.538Z,45.52
2018-01-31T14:07:17.636Z,45.52
2018-01-31T14:08:17.722Z,45.62
2018-01-31T14:09:17.808Z,45.42
2018-01-31T14:10:17.903Z,45.72
2018-01-31T14:11:17.992Z,45.62
2018-01-31T14:12:18.072Z,44.26
2018-01-31T14:13:18.168Z,44.36
2018-01-31T14:14:18.254Z,45.04
2018-01-31T14:15:18.346Z,45.52
2018-01-31T14:16:18.479Z,45.62
2018-01-31T14:17:18.518Z,46.10
2018-01-31T14:18:18.603Z,46.20
2018-01-31T14:19:18.693Z,45.81
2018-01-31T14:20:18.784Z,46.10
2018-01-31T14:21:18.868Z,46.39
2018-01-31T14:22:18.956Z,46.30
2018-01-31T14:23:19.041Z,46.49
2018-01-31T14:24:19.137Z,46.58
2018-01-31T14:25:19.219Z,46.97
2018-01-31T14:26:19.317Z,46.39
2018-01-31T14:27:19.412Z,46.30
2018-01-31T14:28:19.491Z,46.49
2018-01-31T14:29:19.575Z,46.39
2018-01-31T14:30:19.668Z,46.88
2018-01-31T14:31:19.751Z,47.07
2018-01-31T14:32:19.841Z,46.78
2018-01-31T14:33:19.935Z,46.95
2018-01-31T14:34:20.016Z,46.88
2018-01-31T14:35:20.109Z,47.16
2018-01-31T14:36:20.202Z,47.16
2018-01-31T14:37:20.297Z,47.16
2018-01-31T14:38:20.374Z,47.07
2018-01-31T14:39:20.462Z,46.97
2018-01-31T14:40:20.553Z,47.26
2018-01-31T14:41:20.632Z,47.26
2018-01-31T14:42:20.741Z,47.45
2018-01-31T14:43:20.829Z,47.45
2018-01-31T14:44:20.903Z,47.65
2018-01-31T14:45:20.991Z,47.65
2018-01-31T14:46:21.073Z,47.65
2018-01-31T14:47:21.166Z,47.65
2018-01-31T14:48:21.256Z,46.58
2018-01-31T14:49:21.343Z,46.68
2018-01-31T14:50:21.431Z,46.75
2018-01-31T14:51:21.521Z,45.33
2018-01-31T14:52:21.603Z,45.59
2018-01-31T14:53:21.704Z,45.42
2018-01-31T14:54:21.789Z,46.17
2018-01-31T14:55:21.869Z,45.59
2018-01-31T14:56:21.958Z,44.53
2018-01-31T14:57:22.049Z,43.76
2018-01-31T14:58:22.137Z,43.37
2018-01-31T14:59:22.227Z,43.18
2018-01-31T15:00:22.310Z,43.76
2018-01-31T15:01:22.396Z,43.28
2018-01-31T15:02:22.485Z,44.15
2018-01-31T15:03:22.574Z,44.24
2018-01-31T15:04:22.663Z,44.92
2018-01-31T15:05:22.751Z,44.63
2018-01-31T15:06:22.868Z,44.34
2018-01-31T15:07:22.922Z,44.73
2018-01-31T15:08:23.009Z,45.01
2018-01-31T15:09:23.102Z,45.21
2018-01-31T15:10:23.184Z,45.79
2018-01-31T15:11:23.275Z,45.50
2018-01-31T15:12:23.361Z,45.40
2018-01-31T15:13:23.449Z,45.40
2018-01-31T15:14:23.542Z,45.40
2018-01-31T15:15:23.622Z,45.59
2018-01-31T15:16:23.714Z,45.59
2018-01-31T15:17:23.804Z,45.79
2018-01-31T15:18:23.890Z,45.98
2018-01-31T15:19:23.985Z,45.98
2018-01-31T15:20:24.064Z,45.79
2018-01-31T15:21:24.151Z,45.89
2018-01-31T15:22:24.237Z,45.79
2018-01-31T15:23:24.329Z,46.27
2018-01-31T15:24:24.414Z,45.79
2018-01-31T15:25:24.506Z,46.17
2018-01-31T15:26:24.594Z,46.17
2018-01-31T15:27:24.669Z,46.17
2018-01-31T15:28:24.769Z,46.17
2018-01-31T15:29:24.844Z,46.47
2018-01-31T15:30:24.933Z,46.47
2018-01-31T15:31:25.028Z,46.47
2018-01-31T15:32:25.119Z,46.56
2018-01-31T15:33:25.198Z,46.08
2018-01-31T15:34:25.287Z,46.17
2018-01-31T15:35:25.371Z,46.66
2018-01-31T15:36:25.467Z,46.95
2018-01-31T15:37:25.545Z,46.95
2018-01-31T15:38:25.635Z,47.14
2018-01-31T15:39:25.721Z,47.05
2018-01-31T15:40:25.811Z,46.85
2018-01-31T15:41:25.905Z,46.37
2018-01-31T15:42:25.989Z,46.66
2018-01-31T15:43:26.077Z,46.66
2018-01-31T15:44:26.161Z,46.95
2018-01-31T15:45:26.247Z,46.95
2018-01-31T15:46:26.338Z,46.85
2018-01-31T15:47:26.429Z,47.24
2018-01-31T15:48:26.514Z,47.05
2018-01-31T15:49:26.596Z,46.85
2018-01-31T15:50:26.686Z,47.05
2018-01-31T15:51:26.775Z,46.95
2018-01-31T15:52:26.862Z,47.14
2018-01-31T15:53:26.947Z,47.24
2018-01-31T15:54:27.035Z,47.14
2018-01-31T15:55:27.125Z,46.95
2018-01-31T15:56:27.207Z,46.75
2018-01-31T15:57:27.295Z,47.14
2018-01-31T15:58:27.382Z,46.66
2018-01-31T15:59:27.470Z,46.17
2018-01-31T16:00:27.560Z,44.63
2018-01-31T16:01:27.643Z,44.24
2018-01-31T16:02:27.737Z,44.34
2018-01-31T16:03:27.823Z,43.76
2018-01-31T16:04:27.917Z,43.47
2018-01-31T16:05:27.997Z,42.77
2018-01-31T16:06:28.085Z,42.58
2018-01-31T16:07:28.190Z,42.97
2018-01-31T16:08:28.261Z,43.16
2018-01-31T16:09:28.349Z,42.68
2018-01-31T16:10:28.434Z,42.77
2018-01-31T16:11:28.521Z,42.48
2018-01-31T16:12:28.604Z,42.19
2018-01-31T16:13:28.694Z,41.81
2018-01-31T16:14:28.784Z,41.52
2018-01-31T16:15:28.867Z,41.52
2018-01-31T16:16:28.956Z,41.81
2018-01-31T16:17:29.042Z,41.81
2018-01-31T16:18:29.132Z,41.71
2018-01-31T16:19:29.220Z,41.81
2018-01-31T16:20:29.305Z,42.29
2018-01-31T16:21:29.392Z,41.71
2018-01-31T16:22:29.477Z,41.91
2018-01-31T16:23:29.566Z,42.10
2018-01-31T16:24:29.653Z,41.81
2018-01-31T16:25:29.741Z,41.52
2018-01-31T16:26:29.826Z,41.42
2018-01-31T16:27:29.940Z,41.61
2018-01-31T16:28:30.007Z,41.52
2018-01-31T16:29:30.085Z,41.71
2018-01-31T16:30:30.173Z,41.52
2018-01-31T16:31:30.260Z,41.42
2018-01-31T16:32:30.351Z,41.23
2018-01-31T16:33:30.438Z,41.52
2018-01-31T16:34:30.517Z,41.42
2018-01-31T16:35:30.612Z,41.61
2018-01-31T16:36:30.701Z,41.71
2018-01-31T16:37:30.783Z,41.91
2018-01-31T16:38:30.868Z,41.91
2018-01-31T16:39:30.977Z,41.91
2018-01-31T16:40:31.039Z,42.10
2018-01-31T16:41:31.133Z,41.61
2018-01-31T16:42:31.216Z,41.40
2018-01-31T16:43:31.305Z,41.52
2018-01-31T16:44:31.389Z,41.40
2018-01-31T16:45:31.474Z,41.50
2018-01-31T16:46:31.565Z,41.30
2018-01-31T16:47:31.655Z,41.40
2018-01-31T16:48:31.735Z,41.88
2018-01-31T16:49:31.826Z,41.78
2018-01-31T16:50:31.910Z,41.60
2018-01-31T16:51:32.005Z,41.50
2018-01-31T16:52:32.086Z,41.30
2018-01-31T16:53:32.174Z,41.30
2018-01-31T16:54:32.262Z,41.50
2018-01-31T16:55:32.343Z,41.30
2018-01-31T16:56:32.434Z,41.40
2018-01-31T16:57:32.524Z,41.30
2018-01-31T16:58:32.613Z,41.60
2018-01-31T16:59:32.691Z,41.40
2018-01-31T17:00:32.786Z,41.40
2018-01-31T17:01:32.863Z,41.40
2018-01-31T17:02:32.955Z,41.30
2018-01-31T17:03:33.047Z,41.30
2018-01-31T17:04:33.123Z,41.11
2018-01-31T17:05:33.214Z,41.20
2018-01-31T17:06:33.309Z,41.11
2018-01-31T17:07:33.392Z,41.50
2018-01-31T17:08:33.473Z,41.30
2018-01-31T17:09:33.559Z,41.11
2018-01-31T17:10:33.651Z,41.20
2018-01-31T17:11:33.743Z,41.11
2018-01-31T17:12:33.821Z,41.11
2018-01-31T17:13:33.908Z,41.11
2018-01-31T17:14:33.999Z,41.11
2018-01-31T17:15:34.083Z,41.11